Time;durP1;ratioP1;P1;durP2;ratioP2;P2;SDS_P1;SDS_P2;PMS_P1;PMS_P2;Temp;Humidity;BMP_temperature;BMP_pressure;BME280_temperature;BME280_humidity;BME280_pressure;Samples;Min_cycle;Max_cycle;Signal;HPM_P1;HPM_P2
2023/08/14 15:42:58;;;;;;;3.95;1.63;;;;;;;24.97;48.15;100196.63;21252953;27;20298;-81
2023/08/14 15:53:01;;;;;;;3.08;1.77;;;;;;;24.83;48.95;100202.56;21170200;27;20258;-81
2023/08/14 16:12:37;;;;;;;4.75;1.80;;;;;;;24.60;48.89;100188.84;20580639;28;67125;-80
2023/08/14 16:22:39;;;;;;;4.10;1.90;;;;;;;24.47;50.40;100184.88;20644537;28;20198;-82
2023/08/14 16:32:42;;;;;;;4.57;2.08;;;;;;;24.70;49.93;100181.34;20648662;28;20206;-81
2023/08/14 16:42:44;;;;;;;3.78;2.05;;;;;;;25.56;48.26;100168.22;20647846;28;20213;-82
2023/08/14 16:52:47;;;;;;;2.95;1.67;;;;;;;24.25;51.68;100162.13;20638047;28;20194;-82
2023/08/14 17:02:49;;;;;;;3.13;1.92;;;;;;;24.17;51.06;100176.97;20641968;28;20309;-79
2023/08/14 17:12:52;;;;;;;3.10;1.80;;;;;;;24.56;50.78;100170.78;20650205;28;20321;-81
2023/08/14 17:22:54;;;;;;;1.88;1.75;;;;;;;25.11;49.29;100161.06;20595116;28;20205;-82
2023/08/14 17:32:58;;;;;;;2.75;1.80;;;;;;;24.61;50.18;100170.34;20558993;28;20214;-80
2023/08/14 17:43:00;;;;;;;4.18;1.80;;;;;;;24.53;51.20;100191.81;20557650;28;20214;-81
2023/08/14 17:53:06;;;;;;;4.93;2.10;;;;;;;24.23;52.44;100181.84;20557758;28;20510;-80
2023/08/14 18:03:07;;;;;;;4.18;2.10;;;;;;;24.20;52.42;100179.84;20527870;28;20326;-81
2023/08/14 18:13:11;;;;;;;2.33;2.00;;;;;;;24.68;51.06;100189.63;20547948;28;20531;-80
2023/08/14 18:23:12;;;;;;;2.63;1.92;;;;;;;24.35;51.98;100194.06;20558343;28;20340;-81
2023/08/14 18:33:16;;;;;;;4.80;2.33;;;;;;;23.97;53.44;100191.13;20542586;28;20242;-81
2023/08/14 18:43:18;;;;;;;3.67;2.17;;;;;;;24.16;52.70;100179.03;20548693;28;20347;-80
2023/08/14 18:53:21;;;;;;;4.43;2.13;;;;;;;24.01;54.47;100180.41;20536646;28;20199;-80
2023/08/14 19:03:23;;;;;;;4.30;2.47;;;;;;;23.92;54.28;100182.94;20514614;28;20587;-80
2023/08/14 19:13:26;;;;;;;6.65;2.17;;;;;;;24.09;53.84;100182.00;20555946;28;20226;-81
2023/08/14 19:23:27;;;;;;;3.20;2.30;;;;;;;23.64;55.21;100200.44;20526154;28;20226;-79
2023/08/14 19:33:31;;;;;;;3.00;1.98;;;;;;;23.87;54.43;100204.34;20550149;28;20224;-82
2023/08/14 19:43:33;;;;;;;2.90;2.10;;;;;;;23.83;55.16;100214.22;20565276;28;20222;-84
2023/08/14 19:53:37;;;;;;;4.93;2.35;;;;;;;23.57;56.43;100206.22;20551153;28;20604;-83
2023/08/14 20:03:38;;;;;;;5.90;2.90;;;;;;;23.42;57.38;100214.91;20535376;28;20283;-84
2023/08/14 20:13:41;;;;;;;4.20;2.58;;;;;;;23.02;58.66;100224.97;20554921;28;20305;-80
2023/08/14 20:23:43;;;;;;;4.63;2.53;;;;;;;23.11;58.65;100213.06;20540952;28;20611;-80
2023/08/14 20:33:49;;;;;;;4.10;2.45;;;;;;;23.37;57.21;100208.81;20559702;28;20206;-79
2023/08/14 20:43:51;;;;;;;3.75;2.25;;;;;;;22.70;59.55;100222.22;20551728;28;20527;-83
2023/08/14 20:53:54;;;;;;;4.53;2.13;;;;;;;22.39;60.92;100228.84;20532729;28;20266;-85
2023/08/14 21:03:55;;;;;;;4.15;2.60;;;;;;;22.00;61.84;100246.06;20541227;28;20227;-84
2023/08/14 21:13:58;;;;;;;4.30;2.25;;;;;;;22.26;60.66;100233.34;20516025;28;20211;-84
2023/08/14 21:24:00;;;;;;;3.45;2.10;;;;;;;22.08;61.31;100236.25;20552334;28;20223;-80
2023/08/14 21:34:04;;;;;;;5.15;2.78;;;;;;;22.17;60.75;100236.66;20517127;28;20203;-82
2023/08/14 21:44:06;;;;;;;3.00;2.47;;;;;;;22.14;60.46;100241.13;20519011;28;20234;-81
2023/08/14 21:54:11;;;;;;;4.05;2.10;;;;;;;22.19;60.53;100251.38;20532939;28;20495;-82
2023/08/14 22:04:13;;;;;;;4.35;2.80;;;;;;;22.30;60.18;100254.25;20538346;28;20497;-79
2023/08/14 22:14:16;;;;;;;4.95;2.03;;;;;;;21.89;61.95;100246.06;20513168;28;20592;-81
2023/08/14 22:24:18;;;;;;;4.97;2.13;;;;;;;21.90;61.80;100236.25;20515839;28;20226;-83
2023/08/14 22:34:21;;;;;;;4.38;2.30;;;;;;;22.06;61.58;100255.91;20509505;28;20390;-82
2023/08/14 22:44:23;;;;;;;4.57;2.13;;;;;;;22.39;60.39;100246.88;20522365;28;20341;-82
2023/08/14 22:54:26;;;;;;;3.67;2.35;;;;;;;21.98;61.94;100255.06;20530040;28;20407;-82
2023/08/14 23:04:27;;;;;;;2.58;1.92;;;;;;;22.12;61.00;100249.31;20496885;28;20226;-80
2023/08/14 23:14:31;;;;;;;2.92;2.20;;;;;;;22.77;59.20;100250.88;20503898;28;20286;-81
2023/08/14 23:24:32;;;;;;;2.00;1.90;;;;;;;22.46;60.05;100258.34;20501966;28;20219;-81
2023/08/14 23:34:35;;;;;;;3.13;1.98;;;;;;;22.67;59.29;100257.47;20510017;28;20670;-82
2023/08/14 23:44:38;;;;;;;4.05;2.30;;;;;;;22.34;60.40;100252.19;20556768;28;20230;-82
2023/08/14 23:54:41;;;;;;;5.60;2.45;;;;;;;21.99;62.14;100250.97;20559718;28;20206;-82
